createdAt,value
2022-12-01T00:01:33.225Z,58.15
2022-12-01T00:04:00.243Z,60.78
2022-12-01T00:06:27.933Z,57.90
2022-12-01T00:09:19.731Z,51.90
2022-12-01T00:11:48.365Z,59.50
2022-12-01T00:14:16.463Z,58.40
2022-12-01T00:16:44.733Z,63.03
2022-12-01T00:19:11.738Z,60.13
2022-12-01T00:21:38.884Z,59.33
2022-12-01T00:24:07.416Z,55.65
2022-12-01T00:26:34.554Z,60.78
2022-12-01T00:29:01.375Z,59.58
2022-12-01T00:31:28.782Z,55.47
2022-12-01T00:33:56.167Z,56.50
2022-12-01T00:36:24.129Z,52.50
2022-12-01T00:39:01.055Z,52.30
2022-12-01T00:41:32.117Z,53.30
2022-12-01T00:43:58.889Z,49.88
2022-12-01T00:46:26.115Z,51.85
2022-12-01T00:48:53.050Z,56.65
2022-12-01T00:51:20.274Z,58.72
2022-12-01T00:53:47.673Z,54.08
2022-12-01T00:56:15.174Z,53.75
2022-12-01T00:58:42.817Z,51.58
2022-12-01T01:01:10.380Z,58.42
2022-12-01T01:03:40.641Z,56.72
2022-12-01T01:06:16.199Z,58.90
2022-12-01T01:08:47.337Z,55.15
2022-12-01T01:11:14.552Z,56.58
2022-12-01T01:13:41.393Z,51.20
2022-12-01T01:16:18.405Z,55.38
2022-12-01T01:18:47.384Z,60.38
2022-12-01T01:21:18.591Z,49.83
2022-12-01T01:23:46.002Z,55.45
2022-12-01T01:26:22.659Z,50.65
2022-12-01T01:28:51.460Z,51.42
2022-12-01T01:31:24.580Z,54.80
2022-12-01T01:33:53.985Z,55.72
2022-12-01T01:36:23.368Z,52.33
2022-12-01T01:38:54.456Z,53.67
2022-12-01T01:41:24.181Z,52.53
2022-12-01T01:44:02.950Z,55.95
2022-12-01T01:46:37.030Z,54.70
2022-12-01T01:49:19.613Z,54.83
2022-12-01T01:51:56.375Z,55.05
2022-12-01T01:54:34.110Z,56.22
2022-12-01T01:57:08.041Z,51.88
2022-12-01T01:59:50.732Z,54.63
2022-12-01T02:02:22.185Z,54.03
2022-12-01T02:05:01.399Z,51.20
2022-12-01T02:07:34.597Z,55.13
2022-12-01T02:10:01.912Z,50.08
2022-12-01T02:12:53.793Z,52.58
2022-12-01T02:16:20.684Z,55.90
2022-12-01T02:19:24.761Z,55.35
2022-12-01T02:22:48.208Z,52.47
2022-12-01T02:25:48.911Z,59.33
2022-12-01T02:28:53.182Z,56.42
2022-12-01T02:31:58.828Z,53.38
2022-12-01T02:34:51.699Z,51.50
2022-12-01T02:37:41.437Z,54.47
2022-12-01T02:41:10.470Z,52.53
2022-12-01T02:44:12.528Z,52.67
2022-12-01T02:47:14.619Z,50.72
2022-12-01T02:49:51.992Z,53.35
2022-12-01T02:52:29.029Z,51.38
2022-12-01T02:54:57.483Z,52.55
2022-12-01T02:57:25.253Z,56.83
2022-12-01T03:00:01.308Z,52.67
2022-12-01T03:02:42.893Z,51.50
2022-12-01T03:05:20.868Z,53.60
2022-12-01T03:08:13.930Z,47.75
2022-12-01T03:10:56.039Z,48.33
2022-12-01T03:13:56.748Z,50.45
2022-12-01T03:16:47.958Z,48.80
2022-12-01T03:19:37.873Z,51.30
2022-12-01T03:22:15.166Z,52.90
2022-12-01T03:24:48.441Z,48.05
2022-12-01T03:27:27.091Z,48.53
2022-12-01T03:30:01.742Z,44.05
2022-12-01T03:32:47.473Z,46.38
2022-12-01T03:35:51.770Z,47.28
2022-12-01T03:38:30.903Z,45.33
2022-12-01T03:41:10.588Z,49.60
2022-12-01T03:43:52.206Z,46.63
2022-12-01T03:47:03.471Z,48.50
2022-12-01T03:49:36.407Z,46.05
2022-12-01T03:52:52.337Z,42.58
2022-12-01T03:55:31.606Z,44.60
2022-12-01T03:58:41.091Z,45.38
2022-12-01T04:01:13.347Z,48.08
2022-12-01T04:03:45.423Z,44.47
2022-12-01T04:06:12.585Z,43.80
2022-12-01T04:08:39.890Z,46.55
2022-12-01T04:11:32.372Z,44.15
2022-12-01T04:13:59.959Z,41.90
2022-12-01T04:16:27.247Z,44.35
2022-12-01T04:18:54.145Z,43.78
2022-12-01T04:21:21.284Z,48.67
2022-12-01T04:24:00.873Z,52.80
2022-12-01T04:26:45.603Z,47.28
2022-12-01T04:29:21.816Z,45.88
2022-12-01T04:31:49.071Z,48.83
2022-12-01T04:34:16.015Z,50.33
2022-12-01T04:36:43.231Z,44.95
2022-12-01T04:39:10.589Z,49.20
2022-12-01T04:41:37.971Z,49.03
2022-12-01T04:44:05.645Z,48.63
2022-12-01T04:46:33.124Z,51.72
2022-12-01T04:49:00.532Z,50.03
2022-12-01T04:51:31.604Z,39.38
2022-12-01T04:53:59.358Z,47.58
2022-12-01T04:56:36.598Z,44.53
2022-12-01T04:59:03.805Z,45.80
2022-12-01T05:01:30.987Z,44.42
2022-12-01T05:03:58.124Z,45.42
2022-12-01T05:06:29.863Z,44.58
2022-12-01T05:12:35.486Z,46.22
2022-12-01T05:15:03.049Z,45.88
2022-12-01T05:17:36.745Z,48.72
2022-12-01T05:20:44.539Z,41.53
2022-12-01T05:23:16.981Z,42.85
2022-12-01T05:25:54.435Z,40.95
2022-12-01T05:28:24.933Z,44.10
2022-12-01T05:31:03.411Z,44.22
2022-12-01T05:33:32.212Z,47.72
2022-12-01T05:36:08.912Z,42.38
2022-12-01T05:38:36.065Z,42.30
2022-12-01T05:41:03.407Z,42.58
2022-12-01T05:43:30.736Z,42.53
2022-12-01T05:45:58.747Z,38.70
2022-12-01T05:48:26.034Z,46.22
2022-12-01T05:50:53.063Z,43.00
2022-12-01T05:53:20.865Z,46.38
2022-12-01T05:56:02.675Z,47.45
2022-12-01T05:58:29.793Z,42.08
2022-12-01T06:00:56.951Z,42.42
2022-12-01T06:03:59.587Z,41.70
2022-12-01T06:06:29.891Z,42.55
2022-12-01T06:08:56.969Z,46.67
2022-12-01T06:11:23.902Z,43.75
2022-12-01T06:13:51.024Z,43.22
2022-12-01T06:16:17.936Z,44.97
2022-12-01T06:18:45.305Z,44.85
2022-12-01T06:21:12.615Z,43.03
2022-12-01T06:23:39.970Z,49.80
2022-12-01T06:26:07.532Z,43.97
2022-12-01T06:28:37.664Z,52.53
2022-12-01T06:31:04.676Z,47.45
2022-12-01T06:33:32.354Z,43.47
2022-12-01T06:36:01.448Z,46.72
2022-12-01T06:38:38.660Z,42.10
2022-12-01T06:41:06.275Z,45.28
2022-12-01T06:43:38.807Z,57.38
2022-12-01T06:46:12.972Z,49.10
2022-12-01T06:48:40.419Z,42.67
2022-12-01T06:51:07.332Z,47.92
2022-12-01T06:53:34.743Z,41.80
2022-12-01T06:56:06.184Z,43.67
2022-12-01T06:58:42.556Z,40.83
2022-12-01T07:01:13.042Z,36.38
2022-12-01T07:03:40.954Z,40.45
2022-12-01T07:06:09.451Z,40.50
2022-12-01T07:08:37.737Z,39.00
2022-12-01T07:11:16.343Z,44.60
2022-12-01T07:13:52.135Z,41.13
2022-12-01T07:19:28.922Z,38.60
2022-12-01T07:21:55.772Z,41.85
2022-12-01T07:24:23.281Z,45.53
2022-12-01T07:26:50.656Z,43.20
2022-12-01T07:29:18.608Z,42.83
2022-12-01T07:31:45.451Z,44.53
2022-12-01T07:34:15.782Z,43.03
2022-12-01T07:36:42.611Z,44.80
2022-12-01T07:39:09.788Z,41.03
2022-12-01T07:41:36.936Z,46.58
2022-12-01T07:44:04.739Z,43.17
2022-12-01T07:46:32.378Z,43.38
2022-12-01T07:49:00.398Z,49.85
2022-12-01T07:51:29.115Z,42.47
2022-12-01T07:54:05.543Z,42.15
2022-12-01T07:56:35.651Z,41.05
2022-12-01T07:59:03.326Z,43.92
2022-12-01T08:02:06.714Z,45.90
2022-12-01T08:04:46.357Z,46.55
2022-12-01T08:07:13.200Z,44.90
2022-12-01T08:09:51.927Z,43.00
2022-12-01T08:12:52.401Z,46.45
2022-12-01T08:15:39.130Z,46.47
2022-12-01T08:18:06.050Z,48.92
2022-12-01T08:20:58.806Z,42.45
2022-12-01T08:26:55.719Z,47.33
2022-12-01T08:29:57.773Z,40.72
2022-12-01T08:32:24.968Z,43.92
2022-12-01T08:34:53.503Z,45.55
2022-12-01T08:37:21.195Z,49.53
2022-12-01T08:39:48.190Z,44.53
2022-12-01T08:42:29.554Z,42.03
2022-12-01T08:44:56.566Z,41.28
2022-12-01T08:47:23.707Z,42.72
2022-12-01T08:49:50.982Z,49.83
2022-12-01T08:52:18.501Z,54.55
2022-12-01T08:55:32.418Z,46.42
2022-12-01T08:58:00.729Z,44.88
2022-12-01T09:00:27.901Z,41.30
2022-12-01T09:02:55.440Z,55.58
2022-12-01T09:05:59.361Z,44.42
2022-12-01T09:08:35.454Z,49.97
2022-12-01T09:14:10.068Z,45.13
2022-12-01T09:16:40.856Z,45.45
2022-12-01T09:19:08.754Z,49.58
2022-12-01T09:22:00.772Z,44.60
2022-12-01T09:24:49.773Z,36.75
2022-12-01T09:27:20.468Z,35.03
2022-12-01T09:29:47.552Z,34.13
2022-12-01T09:32:15.021Z,34.33
2022-12-01T09:35:23.243Z,36.03
2022-12-01T09:37:58.894Z,43.67
2022-12-01T09:40:57.420Z,38.63
2022-12-01T09:43:46.386Z,33.38
2022-12-01T09:46:34.009Z,36.20
2022-12-01T09:49:13.311Z,37.78
2022-12-01T09:52:20.189Z,42.55
2022-12-01T09:54:50.149Z,36.33
2022-12-01T09:57:40.449Z,32.25
2022-12-01T10:01:16.377Z,38.13
2022-12-01T10:04:38.795Z,32.90
2022-12-01T10:07:16.496Z,38.17
2022-12-01T10:09:55.303Z,38.92
2022-12-01T10:12:36.682Z,38.33
2022-12-01T10:15:37.576Z,38.65
2022-12-01T10:18:32.202Z,41.60
2022-12-01T10:21:11.362Z,42.92
2022-12-01T10:24:28.798Z,45.45
2022-12-01T10:27:44.234Z,45.25
2022-12-01T10:30:23.824Z,44.07
2022-12-01T10:33:30.429Z,42.13
2022-12-01T10:35:58.160Z,41.67
2022-12-01T10:38:36.903Z,41.47
2022-12-01T10:41:15.062Z,44.33
2022-12-01T10:43:54.113Z,39.63
2022-12-01T10:46:46.853Z,44.60
2022-12-01T10:49:20.365Z,41.50
2022-12-01T10:51:57.816Z,47.75
2022-12-01T10:54:45.025Z,43.10
2022-12-01T10:57:17.782Z,50.95
2022-12-01T10:59:58.133Z,44.15
2022-12-01T11:02:39.885Z,45.85
2022-12-01T11:05:25.803Z,42.13
2022-12-01T11:07:54.347Z,45.42
2022-12-01T11:10:37.046Z,48.50
2022-12-01T11:13:29.431Z,50.10
2022-12-01T11:17:00.272Z,49.83
2022-12-01T11:19:36.269Z,49.67
2022-12-01T11:22:29.159Z,46.55
2022-12-01T11:25:21.907Z,44.22
2022-12-01T11:28:01.940Z,47.42
2022-12-01T11:31:03.634Z,53.58
2022-12-01T11:33:45.229Z,48.25
2022-12-01T11:37:16.069Z,55.95
2022-12-01T11:41:24.680Z,48.95
2022-12-01T11:44:06.225Z,61.97
2022-12-01T11:47:23.358Z,47.22
2022-12-01T11:50:25.999Z,56.90
2022-12-01T11:54:31.148Z,48.80
2022-12-01T11:57:33.753Z,46.92
2022-12-01T12:00:17.420Z,52.92
2022-12-01T12:03:19.614Z,50.00
2022-12-01T12:06:32.284Z,50.08
2022-12-01T12:09:24.615Z,48.50
2022-12-01T12:12:13.489Z,48.88
2022-12-01T12:15:42.876Z,52.60
2022-12-01T12:18:43.260Z,54.83
2022-12-01T12:21:37.496Z,58.30
2022-12-01T12:24:36.951Z,49.17
2022-12-01T12:27:27.080Z,49.05
2022-12-01T12:30:24.858Z,54.22
2022-12-01T12:33:46.681Z,53.30
2022-12-01T12:36:51.869Z,47.95
2022-12-01T12:39:31.651Z,51.95
2022-12-01T12:41:58.895Z,45.72
2022-12-01T12:44:50.331Z,48.47
2022-12-01T12:47:51.276Z,53.75
2022-12-01T12:50:36.835Z,52.17
2022-12-01T12:53:21.924Z,51.95
2022-12-01T12:58:58.355Z,49.47
2022-12-01T13:01:37.627Z,52.13
2022-12-01T13:04:26.233Z,55.63
2022-12-01T13:07:07.965Z,57.78
2022-12-01T13:09:47.825Z,56.20
2022-12-01T13:12:29.413Z,51.25
2022-12-01T13:15:18.538Z,50.88
2022-12-01T13:17:54.897Z,56.70
2022-12-01T13:20:28.867Z,52.83
2022-12-01T13:23:01.497Z,55.00
2022-12-01T13:25:41.130Z,47.63
2022-12-01T13:28:25.504Z,56.10
2022-12-01T13:31:20.766Z,66.80
2022-12-01T13:33:56.867Z,57.05
2022-12-01T13:39:27.044Z,57.53
2022-12-01T13:42:04.898Z,58.60
2022-12-01T13:44:42.464Z,55.67
2022-12-01T13:47:14.028Z,56.80
2022-12-01T13:49:45.445Z,65.53
2022-12-01T13:52:28.385Z,61.72
2022-12-01T13:55:07.540Z,62.70
2022-12-01T13:57:58.048Z,61.22
2022-12-01T14:00:35.320Z,71.05
2022-12-01T14:03:39.279Z,65.90
2022-12-01T14:06:21.274Z,72.93
2022-12-01T14:08:54.978Z,65.95
2022-12-01T14:11:28.831Z,62.58
2022-12-01T14:14:12.544Z,62.72
2022-12-01T14:17:03.484Z,60.35
2022-12-01T14:19:53.110Z,61.72
2022-12-01T14:22:39.435Z,61.25
2022-12-01T14:25:36.270Z,59.70
2022-12-01T14:28:15.592Z,62.78
2022-12-01T14:30:45.951Z,68.25
2022-12-01T14:34:18.922Z,61.50
2022-12-01T14:37:30.379Z,70.13
2022-12-01T14:40:36.272Z,67.80
2022-12-01T14:43:38.594Z,74.35
2022-12-01T14:46:18.631Z,73.43
2022-12-01T14:49:00.266Z,69.68
2022-12-01T14:51:50.400Z,65.05
2022-12-01T14:54:35.248Z,72.53
2022-12-01T14:57:22.785Z,69.35
2022-12-01T15:00:19.442Z,70.97
2022-12-01T15:03:09.528Z,81.82
2022-12-01T15:05:48.360Z,77.55
2022-12-01T15:08:41.935Z,74.07
2022-12-01T15:13:58.361Z,70.78
2022-12-01T15:16:31.181Z,70.05
2022-12-01T15:19:32.532Z,72.43
2022-12-01T15:22:11.513Z,71.18
2022-12-01T15:24:39.535Z,76.25
2022-12-01T15:27:39.171Z,66.28
2022-12-01T15:30:16.803Z,66.28
2022-12-01T15:32:49.882Z,77.28
2022-12-01T15:35:23.775Z,67.97
2022-12-01T15:38:09.218Z,68.55
2022-12-01T15:41:20.720Z,71.00
2022-12-01T15:43:41.397Z,66.95
2022-12-01T15:46:35.329Z,70.80
2022-12-01T15:49:33.887Z,66.70
2022-12-01T15:52:10.890Z,70.75
2022-12-01T15:54:40.626Z,67.53
2022-12-01T15:57:25.781Z,75.65
2022-12-01T15:59:57.976Z,72.22
2022-12-01T16:02:34.519Z,68.97
2022-12-01T16:05:36.801Z,73.03
2022-12-01T16:08:30.785Z,75.75
2022-12-01T16:11:37.521Z,67.18
2022-12-01T16:14:27.637Z,68.95
2022-12-01T16:16:55.243Z,67.00
2022-12-01T16:19:33.425Z,64.40
2022-12-01T16:22:12.386Z,66.38
2022-12-01T16:25:04.067Z,73.57
2022-12-01T16:27:33.600Z,67.85
2022-12-01T16:30:14.179Z,69.13
2022-12-01T16:32:44.172Z,74.30
2022-12-01T16:35:21.480Z,69.53
2022-12-01T16:37:48.824Z,68.63
2022-12-01T16:40:16.924Z,67.38
2022-12-01T16:42:44.416Z,69.47
2022-12-01T16:45:15.313Z,70.03
2022-12-01T16:47:47.041Z,73.43
2022-12-01T16:50:17.717Z,72.93
2022-12-01T16:52:45.732Z,68.88
2022-12-01T16:55:22.562Z,73.38
2022-12-01T16:57:53.011Z,77.53
2022-12-01T17:00:21.976Z,79.35
2022-12-01T17:02:48.893Z,69.82
2022-12-01T17:05:16.810Z,80.88
2022-12-01T17:07:43.925Z,83.90
2022-12-01T17:10:12.257Z,76.25
2022-12-01T17:12:39.821Z,71.05
2022-12-01T17:15:07.741Z,73.15
2022-12-01T17:17:34.975Z,77.50
2022-12-01T17:20:05.557Z,71.78
2022-12-01T17:22:37.142Z,73.57
2022-12-01T17:25:07.081Z,82.07
2022-12-01T17:27:34.217Z,67.18
2022-12-01T17:30:04.376Z,69.50
2022-12-01T17:32:32.292Z,66.60
2022-12-01T17:35:00.152Z,67.07
2022-12-01T17:37:30.570Z,74.55
2022-12-01T17:40:00.085Z,67.18
2022-12-01T17:42:32.254Z,70.20
2022-12-01T17:45:00.057Z,73.15
2022-12-01T17:47:27.392Z,73.00
2022-12-01T17:49:54.719Z,72.75
2022-12-01T17:52:26.662Z,71.95
2022-12-01T17:55:00.592Z,75.55
2022-12-01T17:57:28.748Z,72.65
2022-12-01T17:59:56.372Z,72.85
2022-12-01T18:02:23.482Z,71.82
2022-12-01T18:04:51.555Z,75.60
2022-12-01T18:07:20.117Z,85.15
2022-12-01T18:09:47.310Z,74.00
2022-12-01T18:12:14.142Z,75.95
2022-12-01T18:14:41.530Z,70.30
2022-12-01T18:17:08.894Z,70.28
2022-12-01T18:19:36.630Z,81.82
2022-12-01T18:22:06.044Z,71.18
2022-12-01T18:24:33.301Z,73.25
2022-12-01T18:27:00.254Z,77.70
2022-12-01T18:29:28.766Z,77.55
2022-12-01T18:31:57.748Z,74.82
2022-12-01T18:34:32.982Z,75.90
2022-12-01T18:37:02.895Z,67.78
2022-12-01T18:39:30.137Z,69.65
2022-12-01T18:41:58.250Z,66.43
2022-12-01T18:44:25.931Z,65.68
2022-12-01T18:46:53.160Z,68.45
2022-12-01T18:49:20.505Z,68.07
2022-12-01T18:51:47.515Z,60.17
2022-12-01T18:54:15.911Z,59.70
2022-12-01T18:56:43.263Z,64.80
2022-12-01T18:59:13.791Z,64.65
2022-12-01T19:01:49.151Z,64.00
2022-12-01T19:04:17.371Z,66.78
2022-12-01T19:06:46.616Z,61.78
2022-12-01T19:09:20.149Z,62.03
2022-12-01T19:12:03.615Z,61.80
2022-12-01T19:14:31.563Z,67.65
2022-12-01T19:17:00.816Z,63.90
2022-12-01T19:19:29.952Z,61.75
2022-12-01T19:22:00.753Z,66.32
2022-12-01T19:24:37.012Z,68.90
2022-12-01T19:29:43.536Z,63.85
2022-12-01T19:32:11.002Z,71.22
2022-12-01T19:34:38.202Z,62.83
2022-12-01T19:37:05.031Z,62.80
2022-12-01T19:39:32.450Z,66.97
2022-12-01T19:41:59.322Z,62.03
2022-12-01T19:44:26.699Z,69.22
2022-12-01T19:46:54.713Z,62.33
2022-12-01T19:49:21.861Z,66.50
2022-12-01T19:51:49.226Z,66.95
2022-12-01T19:54:19.753Z,65.50
2022-12-01T19:56:46.812Z,64.95
2022-12-01T19:59:15.272Z,62.85
2022-12-01T20:01:50.466Z,67.15
2022-12-01T20:04:18.848Z,69.97
2022-12-01T20:06:46.150Z,67.75
2022-12-01T20:09:14.412Z,63.15
2022-12-01T20:11:41.507Z,59.30
2022-12-01T20:14:10.031Z,63.85
2022-12-01T20:16:36.919Z,65.65
2022-12-01T20:19:05.811Z,70.93
2022-12-01T20:21:43.541Z,65.22
2022-12-01T20:24:22.022Z,59.22
2022-12-01T20:26:53.847Z,64.93
2022-12-01T20:29:29.115Z,65.93
2022-12-01T20:32:01.165Z,62.92
2022-12-01T20:34:38.084Z,71.20
2022-12-01T20:37:07.975Z,64.00
2022-12-01T20:39:37.963Z,69.20
2022-12-01T20:42:07.724Z,65.97
2022-12-01T20:44:39.228Z,66.07
2022-12-01T20:47:08.757Z,61.60
2022-12-01T20:49:36.914Z,59.95
2022-12-01T20:52:04.695Z,68.30
2022-12-01T20:54:32.472Z,57.92
2022-12-01T20:57:00.387Z,68.95
2022-12-01T20:59:28.997Z,63.53
2022-12-01T21:01:56.758Z,66.97
2022-12-01T21:04:25.093Z,68.05
2022-12-01T21:07:01.401Z,66.05
2022-12-01T21:09:28.882Z,68.68
2022-12-01T21:12:35.199Z,63.45
2022-12-01T21:15:24.973Z,68.45
2022-12-01T21:18:22.842Z,64.97
2022-12-01T21:23:38.554Z,63.88
2022-12-01T21:26:16.640Z,61.35
2022-12-01T21:28:45.038Z,65.25
2022-12-01T21:31:15.234Z,69.68
2022-12-01T21:33:46.916Z,70.22
2022-12-01T21:36:23.207Z,60.10
2022-12-01T21:39:00.477Z,74.80
2022-12-01T21:41:30.289Z,67.13
2022-12-01T21:44:17.873Z,74.32
2022-12-01T21:46:46.339Z,67.07
2022-12-01T21:49:22.666Z,68.28
2022-12-01T21:51:55.303Z,64.50
2022-12-01T21:54:23.489Z,67.47
2022-12-01T21:57:00.860Z,64.50
2022-12-01T21:59:28.112Z,70.75
2022-12-01T22:01:57.504Z,69.40
2022-12-01T22:04:37.574Z,69.50
2022-12-01T22:07:05.270Z,68.13
2022-12-01T22:09:36.842Z,69.93
2022-12-01T22:12:10.790Z,71.35
2022-12-01T22:14:38.006Z,66.00
2022-12-01T22:17:09.362Z,69.25
2022-12-01T22:19:46.473Z,62.15
2022-12-01T22:22:22.780Z,62.53
2022-12-01T22:25:04.853Z,65.50
2022-12-01T22:27:42.681Z,61.47
2022-12-01T22:30:25.117Z,65.47
2022-12-01T22:33:39.890Z,62.60
2022-12-01T22:36:33.519Z,64.38
2022-12-01T22:39:01.528Z,63.80
2022-12-01T22:41:29.455Z,56.33
2022-12-01T22:44:03.519Z,57.45
2022-12-01T22:46:46.661Z,65.28
2022-12-01T22:49:26.150Z,61.92
2022-12-01T22:52:30.877Z,65.78
2022-12-01T22:55:00.457Z,62.80
2022-12-01T22:57:37.831Z,64.35
2022-12-01T23:00:21.684Z,63.85
2022-12-01T23:03:00.025Z,61.65
2022-12-01T23:05:41.049Z,60.92
2022-12-01T23:08:32.610Z,67.28
2022-12-01T23:10:59.754Z,63.65
2022-12-01T23:13:26.639Z,66.90
2022-12-01T23:15:54.287Z,59.13
2022-12-01T23:18:32.533Z,64.88
2022-12-01T23:21:01.772Z,59.97
2022-12-01T23:23:40.492Z,65.47
2022-12-01T23:26:09.007Z,59.15
2022-12-01T23:28:44.609Z,60.67
2022-12-01T23:31:13.856Z,64.65
2022-12-01T23:33:41.394Z,61.80
2022-12-01T23:36:28.913Z,67.60
2022-12-01T23:39:08.352Z,58.45
2022-12-01T23:41:48.633Z,60.17
2022-12-01T23:44:42.771Z,63.58
2022-12-01T23:47:27.814Z,67.95
2022-12-01T23:50:06.818Z,57.13
2022-12-01T23:52:36.994Z,55.63
2022-12-01T23:55:29.140Z,58.53
2022-12-01T23:58:17.950Z,66.97
